Terminal Aerodrome Forecast
Issued by NWS

Home | Current Version | Previous Version | Text Only | Print | Product List | Glossary On
Versions: 1 2 3 4 5 6 7 8 9 10 11 12 13 14 15 16 17 18 19 20 21 22 23 24 25 26
000
FTUS42 KMFL 251454 AAB
TAFTMB
TAF AMD
KTMB 251454Z 2515/2612 10006KT P6SM VCSH SCT025 BKN030 BKN120
     FM251600 11012KT P6SM VCSH SCT020 BKN040 BKN100
      TEMPO 2517/2521 4SM SHRA BKN025
     FM260400 11006KT P6SM VCSH FEW015 SCT030 BKN120
     FM260800 11004KT P6SM SHRA OVC035=

USA.gov is the U.S. government's official web portal to all federal, state and local government web resources and services.